sensor_id;sensor_type;location;lat;lon;timestamp;pressure;altitude;pressure_sealevel;temperature;humidity
20455;BME280;10386;54.314;10.022;2022-12-10T00:01:11;100444.13;;;0.56;100.00
20455;BME280;10386;54.314;10.022;2022-12-10T00:03:38;100452.78;;;0.63;100.00
20455;BME280;10386;54.314;10.022;2022-12-10T00:06:08;100450.06;;;0.64;100.00
20455;BME280;10386;54.314;10.022;2022-12-10T00:08:36;100449.59;;;0.76;100.00
20455;BME280;10386;54.314;10.022;2022-12-10T00:11:05;100465.91;;;0.69;100.00
20455;BME280;10386;54.314;10.022;2022-12-10T00:13:33;100472.41;;;0.62;100.00
20455;BME280;10386;54.314;10.022;2022-12-10T00:16:01;100468.97;;;0.58;100.00
20455;BME280;10386;54.314;10.022;2022-12-10T00:18:28;100457.78;;;0.72;100.00
20455;BME280;10386;54.314;10.022;2022-12-10T00:20:55;100467.75;;;0.67;100.00
20455;BME280;10386;54.314;10.022;2022-12-10T00:23:22;100471.31;;;0.67;100.00
20455;BME280;10386;54.314;10.022;2022-12-10T00:25:49;100476.34;;;0.75;100.00
20455;BME280;10386;54.314;10.022;2022-12-10T00:28:16;100472.63;;;0.79;100.00
20455;BME280;10386;54.314;10.022;2022-12-10T00:30:43;100473.41;;;0.82;100.00
20455;BME280;10386;54.314;10.022;2022-12-10T00:33:09;100476.78;;;0.87;100.00
20455;BME280;10386;54.314;10.022;2022-12-10T00:35:36;100481.00;;;0.70;100.00
20455;BME280;10386;54.314;10.022;2022-12-10T00:38:04;100473.13;;;0.90;100.00
20455;BME280;10386;54.314;10.022;2022-12-10T00:40:30;100469.91;;;0.80;100.00
20455;BME280;10386;54.314;10.022;2022-12-10T00:42:58;100469.47;;;0.92;100.00
20455;BME280;10386;54.314;10.022;2022-12-10T00:45:25;100471.53;;;0.84;100.00
20455;BME280;10386;54.314;10.022;2022-12-10T00:47:51;100466.75;;;0.94;100.00
20455;BME280;10386;54.314;10.022;2022-12-10T00:50:18;100480.75;;;0.76;100.00
20455;BME280;10386;54.314;10.022;2022-12-10T00:52:45;100473.63;;;0.76;100.00
20455;BME280;10386;54.314;10.022;2022-12-10T00:55:12;100475.59;;;0.71;100.00
20455;BME280;10386;54.314;10.022;2022-12-10T00:57:39;100489.22;;;0.64;100.00
20455;BME280;10386;54.314;10.022;2022-12-10T01:00:06;100489.22;;;0.64;100.00
20455;BME280;10386;54.314;10.022;2022-12-10T01:02:33;100485.25;;;0.75;100.00
20455;BME280;10386;54.314;10.022;2022-12-10T01:05:00;100497.22;;;0.65;100.00
20455;BME280;10386;54.314;10.022;2022-12-10T01:07:27;100498.88;;;0.68;100.00
20455;BME280;10386;54.314;10.022;2022-12-10T01:09:54;100498.94;;;0.66;100.00
20455;BME280;10386;54.314;10.022;2022-12-10T01:12:20;100497.53;;;0.56;100.00
20455;BME280;10386;54.314;10.022;2022-12-10T01:14:47;100506.06;;;0.66;100.00
20455;BME280;10386;54.314;10.022;2022-12-10T01:17:14;100499.09;;;0.62;100.00
20455;BME280;10386;54.314;10.022;2022-12-10T01:19:41;100506.66;;;0.74;100.00
20455;BME280;10386;54.314;10.022;2022-12-10T01:22:07;100511.41;;;0.66;100.00
20455;BME280;10386;54.314;10.022;2022-12-10T01:24:34;100506.06;;;0.66;100.00
20455;BME280;10386;54.314;10.022;2022-12-10T01:27:01;100517.19;;;0.54;100.00
20455;BME280;10386;54.314;10.022;2022-12-10T01:29:28;100526.00;;;0.57;100.00
20455;BME280;10386;54.314;10.022;2022-12-10T01:31:57;100522.22;;;0.63;100.00
20455;BME280;10386;54.314;10.022;2022-12-10T01:34:24;100526.69;;;0.62;100.00
20455;BME280;10386;54.314;10.022;2022-12-10T01:36:53;100538.88;;;0.45;100.00
20455;BME280;10386;54.314;10.022;2022-12-10T01:39:21;100540.25;;;0.56;100.00
20455;BME280;10386;54.314;10.022;2022-12-10T01:41:51;100536.81;;;0.53;100.00
20455;BME280;10386;54.314;10.022;2022-12-10T01:46:47;100549.53;;;0.46;100.00
20455;BME280;10386;54.314;10.022;2022-12-10T01:49:20;100546.88;;;0.46;100.00
20455;BME280;10386;54.314;10.022;2022-12-10T01:51:50;100544.94;;;0.50;100.00
20455;BME280;10386;54.314;10.022;2022-12-10T01:54:21;100549.13;;;0.57;100.00
20455;BME280;10386;54.314;10.022;2022-12-10T01:57:00;100548.09;;;0.61;100.00
20455;BME280;10386;54.314;10.022;2022-12-10T01:59:28;100551.75;;;0.58;100.00
20455;BME280;10386;54.314;10.022;2022-12-10T02:15:31;100577.00;;;0.74;100.00
20455;BME280;10386;54.314;10.022;2022-12-10T02:18:16;100579.09;;;0.65;100.00
20455;BME280;10386;54.314;10.022;2022-12-10T02:20:51;100570.88;;;0.71;100.00
20455;BME280;10386;54.314;10.022;2022-12-10T02:23:39;100575.19;;;0.75;100.00
20455;BME280;10386;54.314;10.022;2022-12-10T02:26:13;100580.94;;;0.64;100.00
20455;BME280;10386;54.314;10.022;2022-12-10T02:31:18;100578.84;;;0.48;100.00
20455;BME280;10386;54.314;10.022;2022-12-10T02:33:53;100576.97;;;0.50;100.00
20455;BME280;10386;54.314;10.022;2022-12-10T02:36:24;100584.25;;;0.46;100.00
20455;BME280;10386;54.314;10.022;2022-12-10T02:38:53;100579.28;;;0.60;100.00
20455;BME280;10386;54.314;10.022;2022-12-10T02:41:45;100580.47;;;0.52;100.00
20455;BME280;10386;54.314;10.022;2022-12-10T02:44:15;100585.56;;;0.59;100.00
20455;BME280;10386;54.314;10.022;2022-12-10T02:46:44;100579.31;;;0.59;100.00
20455;BME280;10386;54.314;10.022;2022-12-10T02:49:14;100583.97;;;0.54;100.00
20455;BME280;10386;54.314;10.022;2022-12-10T02:51:42;100579.44;;;0.56;100.00
20455;BME280;10386;54.314;10.022;2022-12-10T02:57:30;100590.00;;;0.59;100.00
20455;BME280;10386;54.314;10.022;2022-12-10T03:05:40;100590.56;;;0.68;100.00
20455;BME280;10386;54.314;10.022;2022-12-10T03:08:41;100600.59;;;0.62;100.00
20455;BME280;10386;54.314;10.022;2022-12-10T03:11:12;100601.38;;;0.65;100.00
20455;BME280;10386;54.314;10.022;2022-12-10T03:14:00;100598.22;;;0.53;100.00
20455;BME280;10386;54.314;10.022;2022-12-10T03:16:35;100608.19;;;0.48;100.00
20455;BME280;10386;54.314;10.022;2022-12-10T03:19:05;100601.81;;;0.52;100.00
20455;BME280;10386;54.314;10.022;2022-12-10T03:21:34;100602.63;;;0.55;100.00
20455;BME280;10386;54.314;10.022;2022-12-10T03:24:04;100613.31;;;0.54;100.00
20455;BME280;10386;54.314;10.022;2022-12-10T03:26:32;100599.84;;;0.58;100.00
20455;BME280;10386;54.314;10.022;2022-12-10T03:29:05;100604.38;;;0.55;100.00
20455;BME280;10386;54.314;10.022;2022-12-10T03:31:34;100614.31;;;0.51;100.00
20455;BME280;10386;54.314;10.022;2022-12-10T03:34:02;100609.63;;;0.58;100.00
20455;BME280;10386;54.314;10.022;2022-12-10T03:36:31;100616.59;;;0.62;100.00
20455;BME280;10386;54.314;10.022;2022-12-10T03:38:58;100620.31;;;0.58;100.00
20455;BME280;10386;54.314;10.022;2022-12-10T03:41:26;100630.50;;;0.47;100.00
20455;BME280;10386;54.314;10.022;2022-12-10T03:43:57;100626.31;;;0.38;100.00
20455;BME280;10386;54.314;10.022;2022-12-10T03:46:27;100638.84;;;0.36;100.00
20455;BME280;10386;54.314;10.022;2022-12-10T03:48:59;100639.88;;;0.32;100.00
20455;BME280;10386;54.314;10.022;2022-12-10T03:51:26;100641.31;;;0.42;100.00
20455;BME280;10386;54.314;10.022;2022-12-10T03:53:53;100636.13;;;0.38;100.00
20455;BME280;10386;54.314;10.022;2022-12-10T03:56:20;100642.59;;;0.31;100.00
20455;BME280;10386;54.314;10.022;2022-12-10T03:58:48;100647.84;;;0.34;100.00
20455;BME280;10386;54.314;10.022;2022-12-10T04:01:15;100650.50;;;0.34;100.00
20455;BME280;10386;54.314;10.022;2022-12-10T04:03:42;100657.78;;;0.29;100.00
20455;BME280;10386;54.314;10.022;2022-12-10T04:06:15;100662.25;;;0.28;100.00
20455;BME280;10386;54.314;10.022;2022-12-10T04:08:42;100665.72;;;0.32;100.00
20455;BME280;10386;54.314;10.022;2022-12-10T04:11:10;100662.84;;;0.38;100.00
20455;BME280;10386;54.314;10.022;2022-12-10T04:13:38;100664.69;;;0.36;100.00
20455;BME280;10386;54.314;10.022;2022-12-10T04:16:24;100663.84;;;0.34;100.00
20455;BME280;10386;54.314;10.022;2022-12-10T04:19:00;100663.28;;;0.24;100.00
20455;BME280;10386;54.314;10.022;2022-12-10T04:21:29;100670.41;;;0.24;100.00
20455;BME280;10386;54.314;10.022;2022-12-10T04:24:15;100665.81;;;0.29;100.00
20455;BME280;10386;54.314;10.022;2022-12-10T04:27:08;100668.56;;;0.26;100.00
20455;BME280;10386;54.314;10.022;2022-12-10T04:29:36;100667.66;;;0.27;100.00
20455;BME280;10386;54.314;10.022;2022-12-10T04:32:03;100664.91;;;0.28;100.00
20455;BME280;10386;54.314;10.022;2022-12-10T04:34:30;100665.50;;;0.38;100.00
20455;BME280;10386;54.314;10.022;2022-12-10T04:36:58;100671.16;;;0.29;100.00
20455;BME280;10386;54.314;10.022;2022-12-10T04:39:25;100663.13;;;0.29;100.00
20455;BME280;10386;54.314;10.022;2022-12-10T04:41:52;100669.50;;;0.25;100.00
20455;BME280;10386;54.314;10.022;2022-12-10T04:44:19;100671.38;;;0.21;100.00
20455;BME280;10386;54.314;10.022;2022-12-10T04:46:47;100676.72;;;0.21;100.00
20455;BME280;10386;54.314;10.022;2022-12-10T04:49:14;100666.09;;;0.20;100.00
20455;BME280;10386;54.314;10.022;2022-12-10T04:51:42;100668.38;;;0.32;100.00
20455;BME280;10386;54.314;10.022;2022-12-10T04:54:09;100672.59;;;0.39;100.00
20455;BME280;10386;54.314;10.022;2022-12-10T04:56:37;100673.00;;;0.27;100.00
20455;BME280;10386;54.314;10.022;2022-12-10T04:59:04;100679.81;;;0.35;100.00
20455;BME280;10386;54.314;10.022;2022-12-10T05:01:32;100678.78;;;0.39;100.00
20455;BME280;10386;54.314;10.022;2022-12-10T05:04:01;100680.09;;;0.54;100.00
20455;BME280;10386;54.314;10.022;2022-12-10T05:06:29;100687.06;;;0.32;100.00
20455;BME280;10386;54.314;10.022;2022-12-10T05:08:56;100695.78;;;0.37;100.00
20455;BME280;10386;54.314;10.022;2022-12-10T05:11:25;100702.38;;;0.25;100.00
20455;BME280;10386;54.314;10.022;2022-12-10T05:13:53;100697.97;;;0.52;100.00
20455;BME280;10386;54.314;10.022;2022-12-10T05:16:22;100701.44;;;0.54;100.00
20455;BME280;10386;54.314;10.022;2022-12-10T05:18:50;100714.56;;;0.34;100.00
20455;BME280;10386;54.314;10.022;2022-12-10T05:21:19;100716.34;;;0.33;100.00
20455;BME280;10386;54.314;10.022;2022-12-10T05:23:49;100730.81;;;0.26;100.00
20455;BME280;10386;54.314;10.022;2022-12-10T05:26:21;100732.00;;;0.18;100.00
20455;BME280;10386;54.314;10.022;2022-12-10T05:28:52;100723.16;;;0.16;100.00
20455;BME280;10386;54.314;10.022;2022-12-10T05:31:23;100721.50;;;0.12;100.00
20455;BME280;10386;54.314;10.022;2022-12-10T05:33:51;100726.28;;;0.30;100.00
20455;BME280;10386;54.314;10.022;2022-12-10T05:36:21;100735.50;;;0.20;100.00
20455;BME280;10386;54.314;10.022;2022-12-10T05:38:49;100739.94;;;0.19;100.00
20455;BME280;10386;54.314;10.022;2022-12-10T05:41:19;100739.75;;;0.25;100.00
20455;BME280;10386;54.314;10.022;2022-12-10T05:43:47;100735.13;;;0.30;100.00
20455;BME280;10386;54.314;10.022;2022-12-10T05:46:19;100737.88;;;0.29;100.00
20455;BME280;10386;54.314;10.022;2022-12-10T05:48:46;100741.00;;;0.41;100.00
20455;BME280;10386;54.314;10.022;2022-12-10T05:51:15;100749.38;;;0.31;100.00
20455;BME280;10386;54.314;10.022;2022-12-10T05:53:43;100749.31;;;0.32;100.00
20455;BME280;10386;54.314;10.022;2022-12-10T05:56:13;100747.47;;;0.34;100.00
20455;BME280;10386;54.314;10.022;2022-12-10T05:58:42;100747.22;;;0.43;100.00
20455;BME280;10386;54.314;10.022;2022-12-10T06:01:17;100754.44;;;0.40;100.00
20455;BME280;10386;54.314;10.022;2022-12-10T06:03:45;100754.31;;;0.43;100.00
20455;BME280;10386;54.314;10.022;2022-12-10T06:06:12;100760.72;;;0.37;100.00
20455;BME280;10386;54.314;10.022;2022-12-10T06:08:39;100763.78;;;0.25;100.00
20455;BME280;10386;54.314;10.022;2022-12-10T06:11:10;100775.19;;;0.30;100.00
20455;BME280;10386;54.314;10.022;2022-12-10T06:13:40;100765.22;;;0.35;100.00
20455;BME280;10386;54.314;10.022;2022-12-10T06:16:10;100767.78;;;0.40;100.00
20455;BME280;10386;54.314;10.022;2022-12-10T06:18:37;100773.16;;;0.38;100.00
20455;BME280;10386;54.314;10.022;2022-12-10T06:21:15;100771.38;;;0.39;100.00
20455;BME280;10386;54.314;10.022;2022-12-10T06:23:42;100774.53;;;0.51;100.00
20455;BME280;10386;54.314;10.022;2022-12-10T06:26:12;100773.56;;;0.54;100.00
20455;BME280;10386;54.314;10.022;2022-12-10T06:28:47;100788.13;;;0.44;100.00
20455;BME280;10386;54.314;10.022;2022-12-10T06:31:14;100777.53;;;0.41;100.00
20455;BME280;10386;54.314;10.022;2022-12-10T06:33:42;100780.09;;;0.44;100.00
20455;BME280;10386;54.314;10.022;2022-12-10T06:36:10;100783.78;;;0.40;100.00
20455;BME280;10386;54.314;10.022;2022-12-10T06:38:37;100781.97;;;0.40;100.00
20455;BME280;10386;54.314;10.022;2022-12-10T06:41:05;100791.50;;;0.49;100.00
20455;BME280;10386;54.314;10.022;2022-12-10T06:43:32;100793.44;;;0.44;100.00
20455;BME280;10386;54.314;10.022;2022-12-10T06:46:04;100797.22;;;0.37;100.00
20455;BME280;10386;54.314;10.022;2022-12-10T06:48:32;100797.88;;;0.45;100.00
20455;BME280;10386;54.314;10.022;2022-12-10T06:50:59;100794.66;;;0.34;100.00
20455;BME280;10386;54.314;10.022;2022-12-10T06:53:25;100798.19;;;0.34;100.00
20455;BME280;10386;54.314;10.022;2022-12-10T06:55:52;100798.69;;;0.47;100.00
20455;BME280;10386;54.314;10.022;2022-12-10T06:58:19;100802.72;;;0.60;100.00
20455;BME280;10386;54.314;10.022;2022-12-10T07:00:45;100804.53;;;0.59;100.00
20455;BME280;10386;54.314;10.022;2022-12-10T07:03:12;100806.56;;;0.79;100.00
20455;BME280;10386;54.314;10.022;2022-12-10T07:05:39;100813.22;;;0.66;100.00
20455;BME280;10386;54.314;10.022;2022-12-10T07:08:06;100817.84;;;0.61;100.00
20455;BME280;10386;54.314;10.022;2022-12-10T07:10:32;100834.13;;;0.52;100.00
20455;BME280;10386;54.314;10.022;2022-12-10T07:12:59;100834.09;;;0.53;100.00
20455;BME280;10386;54.314;10.022;2022-12-10T07:15:26;100828.88;;;0.50;100.00
20455;BME280;10386;54.314;10.022;2022-12-10T07:17:54;100833.31;;;0.50;100.00
20455;BME280;10386;54.314;10.022;2022-12-10T07:20:21;100836.59;;;0.59;100.00
20455;BME280;10386;54.314;10.022;2022-12-10T07:22:48;100857.75;;;0.36;100.00
20455;BME280;10386;54.314;10.022;2022-12-10T07:25:15;100854.16;;;0.37;100.00
20455;BME280;10386;54.314;10.022;2022-12-10T07:27:41;100851.38;;;0.42;100.00
20455;BME280;10386;54.314;10.022;2022-12-10T07:30:09;100854.13;;;0.39;100.00
20455;BME280;10386;54.314;10.022;2022-12-10T07:32:36;100859.41;;;0.40;100.00
20455;BME280;10386;54.314;10.022;2022-12-10T07:35:03;100862.84;;;0.45;100.00
20455;BME280;10386;54.314;10.022;2022-12-10T07:37:30;100862.75;;;0.48;100.00
20455;BME280;10386;54.314;10.022;2022-12-10T07:39:57;100870.75;;;0.48;100.00
20455;BME280;10386;54.314;10.022;2022-12-10T07:42:24;100866.59;;;0.38;100.00
20455;BME280;10386;54.314;10.022;2022-12-10T07:44:51;100875.66;;;0.62;100.00
20455;BME280;10386;54.314;10.022;2022-12-10T07:47:18;100876.03;;;0.50;100.00
20455;BME280;10386;54.314;10.022;2022-12-10T07:49:46;100880.81;;;0.39;100.00
20455;BME280;10386;54.314;10.022;2022-12-10T07:52:12;100887.09;;;0.38;100.00
20455;BME280;10386;54.314;10.022;2022-12-10T07:54:39;100893.06;;;0.46;100.00
20455;BME280;10386;54.314;10.022;2022-12-10T07:57:06;100892.59;;;0.32;100.00
20455;BME280;10386;54.314;10.022;2022-12-10T07:59:33;100891.31;;;0.45;100.00
20455;BME280;10386;54.314;10.022;2022-12-10T08:01:59;100891.44;;;0.40;100.00
20455;BME280;10386;54.314;10.022;2022-12-10T08:04:34;100896.44;;;0.52;100.00
20455;BME280;10386;54.314;10.022;2022-12-10T08:07:00;100901.81;;;0.51;100.00
20455;BME280;10386;54.314;10.022;2022-12-10T08:09:27;100909.44;;;0.34;100.00
20455;BME280;10386;54.314;10.022;2022-12-10T08:11:54;100903.28;;;0.32;100.00
20455;BME280;10386;54.314;10.022;2022-12-10T08:14:21;100916.53;;;0.35;100.00
20455;BME280;10386;54.314;10.022;2022-12-10T08:16:47;100905.06;;;0.31;100.00
20455;BME280;10386;54.314;10.022;2022-12-10T08:19:14;100924.63;;;0.32;100.00
20455;BME280;10386;54.314;10.022;2022-12-10T08:21:48;100939.66;;;0.36;100.00
20455;BME280;10386;54.314;10.022;2022-12-10T08:24:15;100927.13;;;0.38;100.00
20455;BME280;10386;54.314;10.022;2022-12-10T08:26:41;100938.63;;;0.40;100.00
20455;BME280;10386;54.314;10.022;2022-12-10T08:29:08;100940.50;;;0.36;100.00
20455;BME280;10386;54.314;10.022;2022-12-10T08:31:35;100945.16;;;0.30;100.00
20455;BME280;10386;54.314;10.022;2022-12-10T08:34:05;100947.94;;;0.25;100.00
20455;BME280;10386;54.314;10.022;2022-12-10T08:36:39;100950.88;;;0.16;100.00
20455;BME280;10386;54.314;10.022;2022-12-10T08:39:06;100958.78;;;0.21;100.00
20455;BME280;10386;54.314;10.022;2022-12-10T08:41:33;100959.28;;;0.33;100.00
20455;BME280;10386;54.314;10.022;2022-12-10T08:43:59;100955.25;;;0.19;100.00
20455;BME280;10386;54.314;10.022;2022-12-10T08:46:26;100956.13;;;0.19;100.00
20455;BME280;10386;54.314;10.022;2022-12-10T08:48:53;100964.94;;;0.23;100.00
20455;BME280;10386;54.314;10.022;2022-12-10T08:51:20;100957.84;;;0.22;100.00
20455;BME280;10386;54.314;10.022;2022-12-10T08:53:47;100968.69;;;0.16;100.00
20455;BME280;10386;54.314;10.022;2022-12-10T08:56:14;100973.28;;;0.41;100.00
20455;BME280;10386;54.314;10.022;2022-12-10T08:58:41;100966.22;;;0.08;100.00
20455;BME280;10386;54.314;10.022;2022-12-10T09:01:10;100974.81;;;0.19;100.00
20455;BME280;10386;54.314;10.022;2022-12-10T09:03:38;100972.06;;;0.22;100.00
20455;BME280;10386;54.314;10.022;2022-12-10T09:06:08;100978.78;;;0.37;100.00
20455;BME280;10386;54.314;10.022;2022-12-10T09:08:35;100972.94;;;0.23;100.00
20455;BME280;10386;54.314;10.022;2022-12-10T09:13:46;100975.97;;;0.09;100.00
20455;BME280;10386;54.314;10.022;2022-12-10T09:16:13;100986.47;;;0.15;100.00
20455;BME280;10386;54.314;10.022;2022-12-10T09:18:40;100992.72;;;0.16;100.00
20455;BME280;10386;54.314;10.022;2022-12-10T09:21:08;100984.63;;;0.19;100.00
20455;BME280;10386;54.314;10.022;2022-12-10T09:23:35;100996.38;;;0.12;100.00
20455;BME280;10386;54.314;10.022;2022-12-10T09:26:06;100998.56;;;0.28;100.00
20455;BME280;10386;54.314;10.022;2022-12-10T09:28:33;100992.38;;;0.28;100.00
20455;BME280;10386;54.314;10.022;2022-12-10T09:31:01;101001.88;;;0.38;100.00
20455;BME280;10386;54.314;10.022;2022-12-10T09:33:28;100993.47;;;0.21;100.00
20455;BME280;10386;54.314;10.022;2022-12-10T09:35:55;100990.13;;;0.13;100.00
20455;BME280;10386;54.314;10.022;2022-12-10T09:38:22;100994.16;;;0.27;100.00
20455;BME280;10386;54.314;10.022;2022-12-10T09:44:14;101003.81;;;0.33;100.00
20455;BME280;10386;54.314;10.022;2022-12-10T09:51:37;101014.31;;;0.39;100.00
20455;BME280;10386;54.314;10.022;2022-12-10T09:54:15;101000.50;;;0.23;100.00
20455;BME280;10386;54.314;10.022;2022-12-10T09:56:45;101007.81;;;0.17;100.00
20455;BME280;10386;54.314;10.022;2022-12-10T09:59:35;101012.22;;;0.18;100.00
20455;BME280;10386;54.314;10.022;2022-12-10T10:04:50;101007.72;;;0.20;100.00
20455;BME280;10386;54.314;10.022;2022-12-10T10:07:23;101020.19;;;0.19;100.00
20455;BME280;10386;54.314;10.022;2022-12-10T10:09:55;101027.28;;;0.20;100.00
20455;BME280;10386;54.314;10.022;2022-12-10T10:12:25;101029.94;;;0.20;100.00
20455;BME280;10386;54.314;10.022;2022-12-10T10:14:53;101020.25;;;0.18;100.00
20455;BME280;10386;54.314;10.022;2022-12-10T10:17:26;101036.00;;;0.27;100.00
20455;BME280;10386;54.314;10.022;2022-12-10T10:19:58;101033.44;;;0.22;100.00
20455;BME280;10386;54.314;10.022;2022-12-10T10:22:25;101033.53;;;0.19;100.00
20455;BME280;10386;54.314;10.022;2022-12-10T10:24:53;101028.84;;;0.27;100.00
20455;BME280;10386;54.314;10.022;2022-12-10T10:27:23;101028.41;;;0.12;100.00
20455;BME280;10386;54.314;10.022;2022-12-10T10:29:54;101034.59;;;0.14;100.00
20455;BME280;10386;54.314;10.022;2022-12-10T10:35:23;101019.50;;;0.13;100.00
20455;BME280;10386;54.314;10.022;2022-12-10T10:37:56;101032.69;;;0.17;100.00
20455;BME280;10386;54.314;10.022;2022-12-10T10:40:32;101030.84;;;0.21;100.00
20455;BME280;10386;54.314;10.022;2022-12-10T10:43:01;101035.19;;;0.23;100.00
20455;BME280;10386;54.314;10.022;2022-12-10T10:48:12;101029.25;;;0.12;100.00
20455;BME280;10386;54.314;10.022;2022-12-10T10:50:45;101036.72;;;0.00;100.00
20455;BME280;10386;54.314;10.022;2022-12-10T10:55:48;101047.53;;;-0.06;100.00
20455;BME280;10386;54.314;10.022;2022-12-10T10:58:22;101035.91;;;-0.03;100.00
20455;BME280;10386;54.314;10.022;2022-12-10T11:01:16;101046.50;;;-0.01;100.00
20455;BME280;10386;54.314;10.022;2022-12-10T11:03:47;101057.09;;;0.02;100.00
20455;BME280;10386;54.314;10.022;2022-12-10T11:06:15;101060.13;;;0.24;100.00
20455;BME280;10386;54.314;10.022;2022-12-10T11:08:44;101055.56;;;0.27;100.00
20455;BME280;10386;54.314;10.022;2022-12-10T11:11:31;101046.94;;;0.18;100.00
20455;BME280;10386;54.314;10.022;2022-12-10T11:14:19;101033.16;;;-0.01;100.00
20455;BME280;10386;54.314;10.022;2022-12-10T11:16:49;101041.91;;;0.06;100.00
20455;BME280;10386;54.314;10.022;2022-12-10T11:19:20;101041.09;;;0.02;100.00
20455;BME280;10386;54.314;10.022;2022-12-10T11:21:48;101040.38;;;-0.04;100.00
20455;BME280;10386;54.314;10.022;2022-12-10T11:24:19;101040.09;;;0.06;100.00
20455;BME280;10386;54.314;10.022;2022-12-10T11:27:11;101041.44;;;0.24;100.00
20455;BME280;10386;54.314;10.022;2022-12-10T11:30:06;101042.59;;;0.12;100.00
20455;BME280;10386;54.314;10.022;2022-12-10T11:32:52;101034.66;;;0.11;100.00
20455;BME280;10386;54.314;10.022;2022-12-10T11:35:55;101033.03;;;-0.29;100.00
20455;BME280;10386;54.314;10.022;2022-12-10T11:38:27;101042.81;;;-0.30;100.00
20455;BME280;10386;54.314;10.022;2022-12-10T11:46:53;101043.44;;;0.16;100.00
20455;BME280;10386;54.314;10.022;2022-12-10T11:49:30;101049.84;;;0.09;100.00
20455;BME280;10386;54.314;10.022;2022-12-10T12:00:51;101039.50;;;-0.04;100.00
20455;BME280;10386;54.314;10.022;2022-12-10T12:09:01;101037.09;;;-0.15;100.00
20455;BME280;10386;54.314;10.022;2022-12-10T12:17:07;101036.75;;;-0.02;100.00
20455;BME280;10386;54.314;10.022;2022-12-10T12:19:58;101024.13;;;-0.30;100.00
20455;BME280;10386;54.314;10.022;2022-12-10T12:22:30;101031.00;;;-0.20;100.00
20455;BME280;10386;54.314;10.022;2022-12-10T12:25:34;101033.47;;;-0.12;100.00
20455;BME280;10386;54.314;10.022;2022-12-10T12:28:22;101041.34;;;-0.08;100.00
20455;BME280;10386;54.314;10.022;2022-12-10T12:31:02;101039.41;;;-0.02;100.00
20455;BME280;10386;54.314;10.022;2022-12-10T12:33:43;101036.78;;;-0.03;100.00
20455;BME280;10386;54.314;10.022;2022-12-10T12:36:20;101024.09;;;-0.28;100.00
20455;BME280;10386;54.314;10.022;2022-12-10T12:38:58;101034.63;;;-0.22;100.00
20455;BME280;10386;54.314;10.022;2022-12-10T12:41:31;101032.91;;;-0.25;100.00
20455;BME280;10386;54.314;10.022;2022-12-10T12:44:14;101034.25;;;-0.07;100.00
20455;BME280;10386;54.314;10.022;2022-12-10T12:46:46;101030.38;;;-0.31;100.00
20455;BME280;10386;54.314;10.022;2022-12-10T12:49:27;101032.97;;;-0.28;100.00
20455;BME280;10386;54.314;10.022;2022-12-10T12:52:01;101031.84;;;-0.18;100.00
20455;BME280;10386;54.314;10.022;2022-12-10T12:54:29;101034.56;;;-0.19;100.00
20455;BME280;10386;54.314;10.022;2022-12-10T12:57:07;101042.41;;;-0.15;100.00
20455;BME280;10386;54.314;10.022;2022-12-10T12:59:59;101037.75;;;-0.05;100.00
20455;BME280;10386;54.314;10.022;2022-12-10T13:05:27;101040.72;;;-0.17;100.00
20455;BME280;10386;54.314;10.022;2022-12-10T13:08:24;101031.84;;;-0.18;100.00
20455;BME280;10386;54.314;10.022;2022-12-10T13:24:20;101049.09;;;-0.32;100.00
20455;BME280;10386;54.314;10.022;2022-12-10T13:27:23;101063.59;;;-0.09;100.00
20455;BME280;10386;54.314;10.022;2022-12-10T13:40:37;101064.00;;;-0.24;100.00
20455;BME280;10386;54.314;10.022;2022-12-10T13:43:35;101060.56;;;-0.29;100.00
20455;BME280;10386;54.314;10.022;2022-12-10T13:46:22;101062.38;;;-0.31;100.00
20455;BME280;10386;54.314;10.022;2022-12-10T13:48:54;101061.06;;;-0.50;100.00
20455;BME280;10386;54.314;10.022;2022-12-10T13:51:52;101073.56;;;-0.52;100.00
20455;BME280;10386;54.314;10.022;2022-12-10T13:57:22;101085.06;;;-0.50;100.00
20455;BME280;10386;54.314;10.022;2022-12-10T14:00:18;101099.44;;;-0.57;100.00
20455;BME280;10386;54.314;10.022;2022-12-10T14:03:00;101099.31;;;-0.51;100.00
20455;BME280;10386;54.314;10.022;2022-12-10T14:11:24;101094.13;;;-0.58;100.00
20455;BME280;10386;54.314;10.022;2022-12-10T14:14:04;101107.38;;;-0.54;100.00
20455;BME280;10386;54.314;10.022;2022-12-10T14:16:33;101107.63;;;-0.66;100.00
20455;BME280;10386;54.314;10.022;2022-12-10T14:19:09;101114.47;;;-0.54;100.00
20455;BME280;10386;54.314;10.022;2022-12-10T14:21:40;101112.91;;;-0.64;100.00
20455;BME280;10386;54.314;10.022;2022-12-10T14:24:36;101126.19;;;-0.61;100.00
20455;BME280;10386;54.314;10.022;2022-12-10T14:29:47;101128.91;;;-0.63;100.00
20455;BME280;10386;54.314;10.022;2022-12-10T14:32:18;101135.06;;;-0.61;100.00
20455;BME280;10386;54.314;10.022;2022-12-10T14:34:51;101131.84;;;-0.76;100.00
20455;BME280;10386;54.314;10.022;2022-12-10T14:37:23;101130.25;;;-0.85;100.00
20455;BME280;10386;54.314;10.022;2022-12-10T14:39:52;101132.94;;;-0.85;100.00
20455;BME280;10386;54.314;10.022;2022-12-10T14:42:19;101140.88;;;-0.83;100.00
20455;BME280;10386;54.314;10.022;2022-12-10T14:44:46;101141.59;;;-0.75;100.00
20455;BME280;10386;54.314;10.022;2022-12-10T14:47:19;101141.31;;;-0.62;100.00
20455;BME280;10386;54.314;10.022;2022-12-10T14:49:48;101146.00;;;-0.73;100.00
20455;BME280;10386;54.314;10.022;2022-12-10T14:52:23;101140.47;;;-0.64;100.00